createdAt,value
2023-09-15T00:00:12.927Z,17.91
2023-09-15T00:02:15.819Z,17.89
2023-09-15T00:04:19.006Z,17.86
2023-09-15T00:06:21.897Z,17.82
2023-09-15T00:08:24.620Z,17.77
2023-09-15T00:10:28.703Z,17.75
2023-09-15T00:12:31.610Z,17.73
2023-09-15T00:14:35.615Z,17.72
2023-09-15T00:16:39.297Z,17.73
2023-09-15T00:18:43.521Z,17.70
2023-09-15T00:20:46.574Z,17.66
2023-09-15T00:22:50.946Z,17.66
2023-09-15T00:24:53.701Z,17.67
2023-09-15T00:26:57.665Z,17.67
2023-09-15T00:29:01.083Z,17.69
2023-09-15T00:31:03.873Z,17.67
2023-09-15T00:33:06.690Z,17.66
2023-09-15T00:35:08.617Z,17.67
2023-09-15T00:37:11.385Z,17.69
2023-09-15T00:39:14.124Z,17.70
2023-09-15T00:41:16.910Z,17.68
2023-09-15T00:43:21.050Z,17.67
2023-09-15T00:45:24.198Z,17.65
2023-09-15T00:47:26.874Z,17.63
2023-09-15T00:49:29.552Z,17.59
2023-09-15T00:51:31.844Z,17.59
2023-09-15T00:53:36.127Z,17.60
2023-09-15T00:55:39.807Z,17.61
2023-09-15T00:57:42.911Z,17.61
2023-09-15T00:59:47.078Z,17.60
2023-09-15T01:01:49.970Z,17.57
2023-09-15T01:03:54.127Z,17.55
2023-09-15T01:05:59.842Z,17.55
2023-09-15T01:08:03.740Z,17.53
2023-09-15T01:10:07.404Z,17.52
2023-09-15T01:12:10.276Z,17.51
2023-09-15T01:14:13.486Z,17.49
2023-09-15T01:16:24.847Z,17.50
2023-09-15T01:18:32.457Z,17.51
2023-09-15T01:21:10.125Z,17.49
2023-09-15T01:23:40.004Z,17.42
2023-09-15T01:26:05.751Z,17.38
2023-09-15T01:28:29.445Z,17.37
2023-09-15T01:30:34.415Z,17.35
2023-09-15T01:32:38.119Z,17.31
2023-09-15T01:34:47.495Z,17.26
2023-09-15T01:36:52.229Z,17.26
2023-09-15T01:38:54.927Z,17.25
2023-09-15T01:40:57.620Z,17.25
2023-09-15T01:43:00.369Z,17.20
2023-09-15T01:45:03.163Z,17.16
2023-09-15T01:47:10.195Z,17.08
2023-09-15T01:49:14.093Z,17.03
2023-09-15T01:51:17.072Z,17.03
2023-09-15T01:53:21.305Z,17.03
2023-09-15T01:55:24.832Z,17.02
2023-09-15T01:57:27.596Z,17.01
2023-09-15T01:59:30.623Z,17.00
2023-09-15T02:01:33.548Z,17.01
2023-09-15T02:03:37.678Z,17.01
2023-09-15T02:05:40.602Z,16.96
2023-09-15T02:07:42.337Z,16.93
2023-09-15T02:09:45.836Z,16.93
2023-09-15T02:11:48.527Z,16.91
2023-09-15T02:13:50.468Z,16.84
2023-09-15T02:15:54.122Z,16.79
2023-09-15T02:18:00.285Z,16.77
2023-09-15T02:20:12.977Z,16.76
2023-09-15T02:22:15.816Z,16.75
2023-09-15T02:24:18.516Z,16.75
2023-09-15T02:26:22.273Z,16.77
2023-09-15T02:28:24.980Z,16.79
2023-09-15T02:30:27.692Z,16.80
2023-09-15T02:32:30.361Z,16.79
2023-09-15T02:34:33.390Z,16.79
2023-09-15T02:36:37.440Z,16.77
2023-09-15T02:38:39.172Z,16.74
2023-09-15T02:40:42.030Z,16.73
2023-09-15T02:42:44.883Z,16.67
2023-09-15T02:44:47.727Z,16.61
2023-09-15T02:46:50.478Z,16.59
2023-09-15T02:48:54.067Z,16.57
2023-09-15T02:50:58.121Z,16.57
2023-09-15T02:53:03.068Z,16.56
2023-09-15T02:55:06.632Z,16.54
2023-09-15T02:57:08.362Z,16.57
2023-09-15T02:59:11.610Z,16.59
2023-09-15T03:01:15.543Z,16.61
2023-09-15T03:03:25.839Z,16.59
2023-09-15T03:05:28.802Z,16.58
2023-09-15T03:07:32.978Z,16.57
2023-09-15T03:09:37.006Z,16.58
2023-09-15T03:11:39.626Z,16.57
2023-09-15T03:13:42.504Z,16.57
2023-09-15T03:15:45.515Z,16.56
2023-09-15T03:17:48.369Z,16.54
2023-09-15T03:19:51.135Z,16.54
2023-09-15T03:21:55.048Z,16.53
2023-09-15T03:23:57.760Z,16.54
2023-09-15T03:26:02.887Z,16.52
2023-09-15T03:28:04.848Z,16.51
2023-09-15T03:30:09.133Z,16.50
2023-09-15T03:32:11.784Z,16.49
2023-09-15T03:34:14.513Z,16.50
2023-09-15T03:36:17.803Z,16.50
2023-09-15T03:38:20.499Z,16.49
2023-09-15T03:40:23.417Z,16.49
2023-09-15T03:42:27.519Z,16.49
2023-09-15T03:44:30.202Z,16.49
2023-09-15T03:46:33.650Z,16.44
2023-09-15T03:48:36.493Z,16.43
2023-09-15T03:50:39.167Z,16.41
2023-09-15T03:52:42.148Z,16.39
2023-09-15T03:54:44.923Z,16.38
2023-09-15T03:56:47.626Z,16.34
2023-09-15T03:58:52.599Z,16.33
2023-09-15T04:00:55.384Z,16.32
2023-09-15T04:02:57.131Z,16.28
2023-09-15T04:04:59.837Z,16.27
2023-09-15T04:07:02.551Z,16.22
2023-09-15T04:09:08.283Z,16.20
2023-09-15T04:11:11.073Z,16.20
2023-09-15T04:13:15.678Z,16.19
2023-09-15T04:15:20.010Z,16.16
2023-09-15T04:17:22.679Z,16.16
2023-09-15T04:19:25.431Z,16.15
2023-09-15T04:21:28.154Z,16.13
2023-09-15T04:23:31.203Z,16.11
2023-09-15T04:25:32.870Z,16.10
2023-09-15T04:27:35.721Z,16.11
2023-09-15T04:29:51.589Z,16.13
2023-09-15T04:31:55.669Z,16.11
2023-09-15T04:33:58.388Z,16.09
2023-09-15T04:36:01.099Z,16.07
2023-09-15T04:38:03.986Z,16.07
2023-09-15T04:40:09.056Z,16.05
2023-09-15T04:42:13.231Z,16.04
2023-09-15T04:44:15.915Z,16.03
2023-09-15T04:46:20.062Z,16.01
2023-09-15T04:48:24.230Z,15.96
2023-09-15T04:50:26.883Z,15.94
2023-09-15T04:52:29.610Z,15.91
2023-09-15T04:54:32.327Z,15.86
2023-09-15T04:56:34.972Z,15.84
2023-09-15T04:58:37.624Z,15.83
2023-09-15T05:00:40.331Z,15.83
2023-09-15T05:02:46.195Z,15.81
2023-09-15T05:04:50.862Z,15.81
2023-09-15T05:06:53.673Z,15.79
2023-09-15T05:08:58.070Z,15.79
2023-09-15T05:11:00.811Z,15.78
2023-09-15T05:13:06.397Z,15.75
2023-09-15T05:15:10.166Z,15.77
2023-09-15T05:17:12.861Z,15.77
2023-09-15T05:19:15.557Z,15.76
2023-09-15T05:21:19.595Z,15.76
2023-09-15T05:23:22.287Z,15.77
2023-09-15T05:25:25.202Z,15.77
2023-09-15T05:27:27.867Z,15.80
2023-09-15T05:29:30.738Z,15.79
2023-09-15T05:31:33.481Z,15.81
2023-09-15T05:33:36.326Z,15.80
2023-09-15T05:35:39.018Z,15.82
2023-09-15T05:37:43.252Z,15.84
2023-09-15T05:39:45.941Z,15.86
2023-09-15T05:41:48.672Z,15.87
2023-09-15T05:43:51.443Z,15.88
2023-09-15T05:45:54.275Z,15.91
2023-09-15T05:47:57.024Z,15.91
2023-09-15T05:50:02.028Z,15.93
2023-09-15T05:52:05.063Z,15.95
2023-09-15T05:54:09.510Z,15.94
2023-09-15T05:56:12.391Z,15.94
2023-09-15T05:58:15.441Z,15.92
2023-09-15T06:00:17.270Z,15.93
2023-09-15T06:02:21.377Z,15.95
2023-09-15T06:04:24.302Z,15.99
2023-09-15T06:06:27.134Z,15.99
2023-09-15T06:08:30.945Z,16.02
2023-09-15T06:10:37.096Z,16.03
2023-09-15T06:12:39.737Z,16.03
2023-09-15T06:14:42.396Z,16.04
2023-09-15T06:16:45.103Z,16.05
2023-09-15T06:18:47.133Z,16.07
2023-09-15T06:20:50.141Z,16.08
2023-09-15T06:22:52.838Z,16.08
2023-09-15T06:24:55.546Z,16.08
2023-09-15T06:26:59.592Z,16.09
2023-09-15T06:29:02.582Z,16.15
2023-09-15T06:31:05.305Z,16.17
2023-09-15T06:33:08.195Z,16.19
2023-09-15T06:35:14.115Z,16.19
2023-09-15T06:37:16.908Z,16.20
2023-09-15T06:39:19.819Z,16.18
2023-09-15T06:41:22.852Z,16.13
2023-09-15T06:43:25.992Z,16.05
2023-09-15T06:45:28.738Z,16.05
2023-09-15T06:47:31.512Z,16.04
2023-09-15T06:49:34.292Z,16.05
2023-09-15T06:51:36.950Z,16.08
2023-09-15T06:53:39.595Z,16.10
2023-09-15T06:55:42.304Z,16.14
2023-09-15T06:57:43.968Z,16.17
2023-09-15T06:59:48.069Z,16.21
2023-09-15T07:01:50.788Z,16.21
2023-09-15T07:03:53.514Z,16.26
2023-09-15T07:05:56.264Z,16.29
2023-09-15T07:07:58.932Z,16.33
2023-09-15T07:10:01.571Z,16.37
2023-09-15T07:12:05.451Z,16.40
2023-09-15T07:14:08.170Z,16.42
2023-09-15T07:16:12.272Z,16.45
2023-09-15T07:18:15.301Z,16.49
2023-09-15T07:20:17.101Z,16.51
2023-09-15T07:22:19.848Z,16.57
2023-09-15T07:24:22.724Z,16.58
2023-09-15T07:26:27.721Z,16.59
2023-09-15T07:28:30.462Z,16.58
2023-09-15T07:30:33.187Z,16.57
2023-09-15T07:32:37.202Z,16.59
2023-09-15T07:34:39.853Z,16.65
2023-09-15T07:36:42.545Z,16.65
2023-09-15T07:38:45.164Z,16.62
2023-09-15T07:40:47.865Z,16.64
2023-09-15T07:42:51.090Z,16.66
2023-09-15T07:44:53.766Z,16.67
2023-09-15T07:46:56.494Z,16.69
2023-09-15T07:49:00.538Z,16.72
2023-09-15T07:51:02.340Z,16.77
2023-09-15T07:53:05.380Z,16.77
2023-09-15T07:55:08.613Z,16.80
2023-09-15T07:57:11.337Z,16.82
2023-09-15T07:59:15.059Z,16.87
2023-09-15T08:01:17.921Z,16.91
2023-09-15T08:03:20.738Z,16.92
2023-09-15T08:05:25.166Z,16.98
2023-09-15T08:07:27.136Z,17.01
2023-09-15T08:09:29.788Z,17.05
2023-09-15T08:11:35.499Z,17.10
2023-09-15T08:13:38.215Z,17.15
2023-09-15T08:15:41.297Z,17.15
2023-09-15T08:17:44.020Z,17.17
2023-09-15T08:19:46.801Z,17.21
2023-09-15T08:21:50.813Z,17.25
2023-09-15T08:23:56.267Z,17.28
2023-09-15T08:26:02.305Z,17.34
2023-09-15T08:28:07.403Z,17.38
2023-09-15T08:30:10.648Z,17.48
2023-09-15T08:32:15.643Z,17.45
2023-09-15T08:34:18.419Z,17.47
2023-09-15T08:36:21.156Z,17.50
2023-09-15T08:38:26.781Z,17.56
2023-09-15T08:40:38.847Z,17.58
2023-09-15T08:42:41.876Z,17.60
2023-09-15T08:44:45.677Z,17.63
2023-09-15T08:46:49.704Z,17.64
2023-09-15T08:48:54.905Z,17.66
2023-09-15T08:51:00.791Z,17.71
2023-09-15T08:53:05.321Z,17.74
2023-09-15T08:55:10.341Z,17.76
2023-09-15T08:57:13.584Z,17.77
2023-09-15T08:59:17.532Z,17.79
2023-09-15T09:01:20.965Z,17.82
2023-09-15T09:03:24.671Z,17.86
2023-09-15T09:05:28.936Z,17.89
2023-09-15T09:07:32.267Z,17.91
2023-09-15T09:09:35.813Z,17.94
2023-09-15T09:11:39.967Z,17.97
2023-09-15T09:13:44.683Z,17.99
2023-09-15T09:15:49.640Z,18.08
2023-09-15T09:17:52.511Z,18.09
2023-09-15T09:19:55.237Z,18.11
2023-09-15T09:22:03.355Z,18.14
2023-09-15T09:24:07.167Z,18.19
2023-09-15T09:26:12.314Z,18.23
2023-09-15T09:28:18.542Z,18.27
2023-09-15T09:30:21.361Z,18.30
2023-09-15T09:32:24.230Z,18.32
2023-09-15T09:34:45.543Z,18.39
2023-09-15T09:36:50.397Z,18.43
2023-09-15T09:38:53.994Z,18.44
2023-09-15T09:40:57.523Z,18.47
2023-09-15T09:43:00.301Z,18.50
2023-09-15T09:45:05.727Z,18.51
2023-09-15T09:47:09.867Z,18.55
2023-09-15T09:49:14.131Z,18.59
2023-09-15T09:51:18.564Z,18.61
2023-09-15T09:53:29.079Z,18.64
2023-09-15T09:55:32.387Z,18.67
2023-09-15T09:57:35.227Z,18.70
2023-09-15T09:59:38.350Z,18.72
2023-09-15T10:01:42.981Z,18.79
2023-09-15T10:03:45.840Z,18.81
2023-09-15T10:05:50.192Z,18.84
2023-09-15T10:07:55.407Z,18.89
2023-09-15T10:10:00.383Z,18.92
2023-09-15T10:12:03.694Z,19.02
2023-09-15T10:14:07.943Z,19.05
2023-09-15T10:16:10.868Z,19.06
2023-09-15T10:18:17.937Z,19.10
2023-09-15T10:20:22.642Z,19.14
2023-09-15T10:22:26.269Z,19.17
2023-09-15T10:24:28.251Z,19.22
2023-09-15T10:26:33.060Z,19.29
2023-09-15T10:30:42.424Z,19.33
2023-09-15T10:32:44.845Z,19.39
2023-09-15T10:34:50.168Z,19.40
2023-09-15T10:36:53.948Z,19.46
2023-09-15T10:38:58.450Z,19.52
2023-09-15T10:41:04.795Z,19.54
2023-09-15T10:43:08.530Z,19.57
2023-09-15T10:45:12.391Z,19.61
2023-09-15T10:47:18.733Z,19.63
2023-09-15T10:49:23.636Z,19.66
2023-09-15T10:51:28.351Z,19.70
2023-09-15T10:53:31.153Z,19.71
2023-09-15T10:55:32.966Z,19.77
2023-09-15T10:57:37.277Z,19.79
2023-09-15T10:59:40.079Z,19.87
2023-09-15T11:01:44.641Z,19.89
2023-09-15T11:03:47.990Z,19.90
2023-09-15T11:05:53.408Z,19.95
2023-09-15T11:07:58.619Z,20.00
2023-09-15T11:10:01.289Z,20.02
2023-09-15T11:12:05.285Z,20.02
2023-09-15T11:14:07.416Z,20.03
2023-09-15T11:16:11.455Z,20.06
2023-09-15T11:18:16.686Z,20.13
2023-09-15T11:20:18.713Z,20.14
2023-09-15T11:22:21.387Z,20.17
2023-09-15T11:24:25.447Z,20.22
2023-09-15T11:26:28.769Z,20.30
2023-09-15T11:28:32.874Z,20.33
2023-09-15T11:30:35.603Z,20.39
2023-09-15T11:32:39.843Z,20.41
2023-09-15T11:34:42.775Z,20.46
2023-09-15T11:36:46.040Z,20.54
2023-09-15T11:38:49.439Z,20.58
2023-09-15T11:40:53.795Z,20.61
2023-09-15T11:42:57.541Z,20.64
2023-09-15T11:45:00.446Z,20.67
2023-09-15T11:47:05.202Z,20.75
2023-09-15T11:49:08.928Z,20.79
2023-09-15T11:51:11.922Z,20.79
2023-09-15T11:53:14.773Z,20.84
2023-09-15T11:55:22.262Z,20.87
2023-09-15T11:57:26.503Z,20.88
2023-09-15T11:59:32.089Z,20.85
2023-09-15T12:01:34.941Z,20.88
2023-09-15T12:03:39.511Z,20.89
2023-09-15T12:05:42.366Z,20.99
2023-09-15T12:07:45.881Z,21.03
2023-09-15T12:09:49.680Z,21.12
2023-09-15T12:11:53.694Z,21.17
2023-09-15T12:13:59.955Z,21.23
2023-09-15T12:16:02.618Z,21.34
2023-09-15T12:18:06.352Z,21.48
2023-09-15T12:20:09.853Z,21.91
2023-09-15T12:22:12.504Z,21.99
2023-09-15T12:24:16.584Z,22.22
2023-09-15T12:26:19.939Z,22.46
2023-09-15T12:28:23.957Z,22.64
2023-09-15T12:30:28.474Z,22.90
2023-09-15T12:32:33.264Z,23.15
2023-09-15T12:34:36.546Z,23.45
2023-09-15T12:36:39.998Z,23.70
2023-09-15T12:38:42.737Z,23.91
2023-09-15T12:40:46.705Z,23.93
2023-09-15T12:42:49.391Z,23.86
2023-09-15T12:44:52.793Z,23.78
2023-09-15T12:46:57.527Z,23.66
2023-09-15T12:49:00.229Z,23.64
2023-09-15T12:51:03.550Z,23.59
2023-09-15T12:53:06.334Z,23.51
2023-09-15T12:55:09.316Z,23.36
2023-09-15T12:57:12.045Z,23.23
2023-09-15T12:59:15.305Z,23.18
2023-09-15T13:01:18.045Z,23.17
2023-09-15T13:03:23.679Z,23.50
2023-09-15T13:05:25.632Z,23.99
2023-09-15T13:07:30.456Z,24.48
2023-09-15T13:09:33.278Z,25.00
2023-09-15T13:11:34.989Z,25.22
2023-09-15T13:13:38.072Z,25.15
2023-09-15T13:15:40.808Z,25.17
2023-09-15T13:17:42.487Z,24.95
2023-09-15T13:19:46.559Z,24.72
2023-09-15T13:21:49.265Z,25.03
2023-09-15T13:23:52.041Z,25.72
2023-09-15T13:25:54.705Z,26.45
2023-09-15T13:27:57.342Z,26.93
2023-09-15T13:30:00.164Z,27.06
2023-09-15T13:32:03.080Z,26.92
2023-09-15T13:34:05.837Z,26.87
2023-09-15T13:36:10.634Z,26.88
2023-09-15T13:38:13.410Z,26.95
2023-09-15T13:40:16.140Z,27.01
2023-09-15T13:42:20.368Z,27.09
2023-09-15T13:44:23.164Z,27.10
2023-09-15T13:46:25.874Z,27.12
2023-09-15T13:48:28.661Z,27.08
2023-09-15T13:50:30.943Z,27.09
2023-09-15T13:52:35.666Z,27.04
2023-09-15T13:54:38.690Z,27.02
2023-09-15T13:56:41.462Z,27.02
2023-09-15T13:58:44.177Z,27.10
2023-09-15T14:00:57.964Z,27.20
2023-09-15T14:03:00.968Z,27.28
2023-09-15T14:05:05.530Z,27.20
2023-09-15T14:07:08.409Z,27.13
2023-09-15T14:09:13.574Z,27.14
2023-09-15T14:11:16.540Z,27.09
2023-09-15T14:13:20.649Z,27.14
2023-09-15T14:15:23.591Z,27.35
2023-09-15T14:17:27.185Z,27.39
2023-09-15T14:19:29.940Z,27.56
2023-09-15T14:21:35.196Z,27.53
2023-09-15T14:23:38.055Z,27.45
2023-09-15T14:25:42.049Z,27.44
2023-09-15T14:27:44.787Z,27.32
2023-09-15T14:29:47.465Z,27.30
2023-09-15T14:31:50.246Z,27.18
2023-09-15T14:33:52.901Z,27.25
2023-09-15T14:35:55.703Z,27.21
2023-09-15T14:37:58.363Z,27.16
2023-09-15T14:40:01.849Z,27.19
2023-09-15T14:42:06.341Z,27.09
2023-09-15T14:44:10.377Z,27.03
2023-09-15T14:46:13.776Z,26.97
2023-09-15T14:48:17.486Z,26.98
2023-09-15T14:50:20.295Z,26.95
2023-09-15T14:52:22.936Z,26.99
2023-09-15T14:54:26.216Z,26.99
2023-09-15T14:56:29.132Z,26.97
2023-09-15T14:58:33.360Z,27.06
2023-09-15T15:00:36.105Z,27.05
2023-09-15T15:02:38.925Z,26.97
2023-09-15T15:04:42.216Z,27.04
2023-09-15T15:06:45.475Z,27.08
2023-09-15T15:08:48.696Z,26.97
2023-09-15T15:10:51.465Z,26.89
2023-09-15T15:12:55.739Z,26.87
2023-09-15T15:14:59.795Z,26.82
2023-09-15T15:17:02.561Z,26.83
2023-09-15T15:19:06.814Z,26.78
2023-09-15T15:21:10.056Z,26.75
2023-09-15T15:23:12.896Z,26.76
2023-09-15T15:25:15.888Z,26.74
2023-09-15T15:27:20.360Z,26.68
2023-09-15T15:29:23.062Z,26.61
2023-09-15T15:31:26.149Z,26.63
2023-09-15T15:33:29.630Z,26.51
2023-09-15T15:35:33.614Z,26.51
2023-09-15T15:37:36.647Z,26.43
2023-09-15T15:39:39.317Z,26.34
2023-09-15T15:41:42.024Z,26.29
2023-09-15T15:43:44.846Z,26.26
2023-09-15T15:45:56.438Z,26.24
2023-09-15T15:48:02.027Z,26.12
2023-09-15T15:50:06.906Z,26.03
2023-09-15T15:52:08.605Z,25.94
2023-09-15T15:54:11.310Z,25.94
2023-09-15T15:56:14.121Z,25.77
2023-09-15T15:58:19.151Z,25.60
2023-09-15T16:00:21.947Z,25.49
2023-09-15T16:02:24.726Z,25.27
2023-09-15T16:04:28.829Z,25.20
2023-09-15T16:06:31.623Z,25.02
2023-09-15T16:08:34.405Z,24.91
2023-09-15T16:10:37.692Z,24.87
2023-09-15T16:12:40.472Z,24.70
2023-09-15T16:14:45.964Z,24.59
2023-09-15T16:16:48.690Z,24.50
2023-09-15T16:18:51.539Z,24.38
2023-09-15T16:20:55.857Z,24.34
2023-09-15T16:22:58.911Z,24.25
2023-09-15T16:25:01.880Z,24.22
2023-09-15T16:27:04.961Z,24.13
2023-09-15T16:29:07.607Z,24.05
2023-09-15T16:31:10.424Z,24.01
2023-09-15T16:33:14.944Z,23.95
2023-09-15T16:35:17.905Z,23.90
2023-09-15T16:37:22.008Z,23.89
2023-09-15T16:39:27.230Z,23.85
2023-09-15T16:41:31.354Z,23.82
2023-09-15T16:43:36.851Z,23.79
2023-09-15T16:45:39.532Z,23.74
2023-09-15T16:47:42.406Z,23.70
2023-09-15T16:49:45.388Z,23.65
2023-09-15T16:51:48.094Z,23.67
2023-09-15T16:53:52.143Z,23.58
2023-09-15T16:55:54.747Z,23.49
2023-09-15T16:57:57.607Z,23.45
2023-09-15T17:00:01.100Z,23.41
2023-09-15T17:02:04.490Z,23.39
2023-09-15T17:04:09.464Z,23.34
2023-09-15T17:06:12.383Z,23.28
2023-09-15T17:08:14.135Z,23.24
2023-09-15T17:10:18.171Z,23.21
2023-09-15T17:12:21.300Z,23.15
2023-09-15T17:14:24.219Z,23.11
2023-09-15T17:16:27.005Z,23.13
2023-09-15T17:18:30.533Z,23.06
2023-09-15T17:20:33.191Z,23.01
2023-09-15T17:22:36.986Z,23.01
2023-09-15T17:24:41.484Z,23.03
2023-09-15T17:26:46.736Z,22.98
2023-09-15T17:28:49.816Z,23.04
2023-09-15T17:30:52.832Z,22.93
2023-09-15T17:32:55.599Z,22.88
2023-09-15T17:34:58.312Z,22.93
2023-09-15T17:37:00.971Z,22.86
2023-09-15T17:39:04.760Z,22.80
2023-09-15T17:41:07.810Z,22.76
2023-09-15T17:43:11.794Z,22.70
2023-09-15T17:45:15.326Z,22.61
2023-09-15T17:47:17.992Z,22.56
2023-09-15T17:49:21.125Z,22.46
2023-09-15T17:51:24.130Z,22.40
2023-09-15T17:53:26.800Z,22.32
2023-09-15T17:55:29.517Z,22.28
2023-09-15T17:57:31.392Z,22.27
2023-09-15T17:59:36.200Z,22.20
2023-09-15T18:01:38.936Z,22.23
2023-09-15T18:03:45.620Z,22.15
2023-09-15T18:05:48.376Z,22.12
2023-09-15T18:07:51.675Z,22.13
2023-09-15T18:09:54.169Z,22.06
2023-09-15T18:11:57.044Z,22.01
2023-09-15T18:14:00.195Z,21.98
2023-09-15T18:16:04.309Z,21.90
2023-09-15T18:18:07.951Z,21.84
2023-09-15T18:20:10.800Z,21.83
2023-09-15T18:22:13.463Z,21.79
2023-09-15T18:24:16.204Z,21.72
2023-09-15T18:26:18.960Z,21.69
2023-09-15T18:30:25.088Z,21.58
2023-09-15T18:32:29.477Z,21.59
2023-09-15T18:34:32.763Z,21.53
2023-09-15T18:36:35.966Z,21.49
2023-09-15T18:38:38.852Z,21.46
2023-09-15T18:40:41.695Z,21.42
2023-09-15T18:42:44.342Z,21.37
2023-09-15T18:44:47.315Z,21.34
2023-09-15T18:46:50.337Z,21.33
2023-09-15T18:48:55.363Z,21.32
2023-09-15T18:50:58.172Z,21.28
2023-09-15T18:53:01.104Z,21.27
2023-09-15T18:55:04.456Z,21.30
2023-09-15T18:57:09.835Z,21.24
2023-09-15T18:59:13.754Z,21.23
2023-09-15T19:01:16.859Z,21.21
2023-09-15T19:03:21.891Z,21.19
2023-09-15T19:05:25.691Z,21.17
2023-09-15T19:07:28.422Z,21.14
2023-09-15T19:09:31.348Z,21.12
2023-09-15T19:11:34.017Z,21.11
2023-09-15T19:13:43.213Z,21.11
2023-09-15T19:15:46.312Z,21.11
2023-09-15T19:17:48.234Z,21.11
2023-09-15T19:19:50.953Z,21.10
2023-09-15T19:21:55.068Z,21.09
2023-09-15T19:23:58.107Z,21.08
2023-09-15T19:26:02.415Z,21.05
2023-09-15T19:28:06.955Z,21.03
2023-09-15T19:30:10.862Z,21.02
2023-09-15T19:32:13.533Z,21.01
2023-09-15T19:34:16.235Z,20.98
2023-09-15T19:36:19.024Z,20.96
2023-09-15T19:38:23.122Z,20.91
2023-09-15T19:40:25.823Z,20.88
2023-09-15T19:42:29.667Z,20.87
2023-09-15T19:44:33.250Z,20.84
2023-09-15T19:46:37.133Z,20.82
2023-09-15T19:48:40.373Z,20.83
2023-09-15T19:50:43.130Z,20.82
2023-09-15T19:52:45.849Z,20.77
2023-09-15T19:54:50.721Z,20.71
2023-09-15T19:56:54.601Z,20.66
2023-09-15T19:58:57.311Z,20.62
2023-09-15T20:01:00.106Z,20.60
2023-09-15T20:03:04.658Z,20.60
2023-09-15T20:05:07.912Z,20.61
2023-09-15T20:07:10.580Z,20.62
2023-09-15T20:09:12.264Z,20.60
2023-09-15T20:11:16.498Z,20.58
2023-09-15T20:13:21.159Z,20.57
2023-09-15T20:15:23.142Z,20.56
2023-09-15T20:17:28.065Z,20.51
2023-09-15T20:19:31.246Z,20.49
2023-09-15T20:21:34.018Z,20.48
2023-09-15T20:23:36.765Z,20.47
2023-09-15T20:25:39.694Z,20.45
2023-09-15T20:27:46.130Z,20.41
2023-09-15T20:29:48.893Z,20.40
2023-09-15T20:31:51.636Z,20.37
2023-09-15T20:33:54.328Z,20.33
2023-09-15T20:35:58.034Z,20.30
2023-09-15T20:38:00.782Z,20.28
2023-09-15T20:40:03.652Z,20.28
2023-09-15T20:42:06.826Z,20.26
2023-09-15T20:44:10.841Z,20.25
2023-09-15T20:46:13.490Z,20.23
2023-09-15T20:48:16.258Z,20.22
2023-09-15T20:50:18.991Z,20.21
2023-09-15T20:52:20.675Z,20.19
2023-09-15T20:54:23.322Z,20.16
2023-09-15T20:56:26.013Z,20.14
2023-09-15T20:58:27.656Z,20.12
2023-09-15T21:00:31.782Z,20.08
2023-09-15T21:02:35.998Z,20.03
2023-09-15T21:04:38.749Z,20.00
2023-09-15T21:06:42.649Z,19.97
2023-09-15T21:08:45.520Z,19.95
2023-09-15T21:10:49.792Z,19.94
2023-09-15T21:12:53.071Z,19.93
2023-09-15T21:14:56.096Z,19.93
2023-09-15T21:17:00.199Z,19.93
2023-09-15T21:19:02.938Z,19.92
2023-09-15T21:21:05.655Z,19.92
2023-09-15T21:23:07.732Z,19.90
2023-09-15T21:25:10.750Z,19.92
2023-09-15T21:27:13.518Z,19.88
2023-09-15T21:29:16.262Z,19.86
2023-09-15T21:31:19.017Z,19.85
2023-09-15T21:33:23.273Z,19.85
2023-09-15T21:35:25.954Z,19.83
2023-09-15T21:37:28.581Z,19.81
2023-09-15T21:39:31.283Z,19.78
2023-09-15T21:41:34.030Z,19.76
2023-09-15T21:43:37.666Z,19.74
2023-09-15T21:45:40.311Z,19.71
2023-09-15T21:47:42.949Z,19.67
2023-09-15T21:49:46.078Z,19.67
2023-09-15T21:51:48.817Z,19.67
2023-09-15T21:53:51.459Z,19.61
2023-09-15T21:55:55.168Z,19.55
2023-09-15T21:57:57.985Z,19.51
2023-09-15T22:00:00.642Z,19.47
2023-09-15T22:02:03.292Z,19.44
2023-09-15T22:04:06.341Z,19.42
2023-09-15T22:06:09.567Z,19.43
2023-09-15T22:08:12.222Z,19.43
2023-09-15T22:10:15.088Z,19.43
2023-09-15T22:12:17.759Z,19.43
2023-09-15T22:14:20.680Z,19.41
2023-09-15T22:16:23.411Z,19.38
2023-09-15T22:18:26.111Z,19.35
2023-09-15T22:20:28.835Z,19.33
2023-09-15T22:22:32.836Z,19.31
2023-09-15T22:24:35.573Z,19.30
2023-09-15T22:26:38.283Z,19.28
2023-09-15T22:28:41.873Z,19.27
2023-09-15T22:30:44.610Z,19.25
2023-09-15T22:32:48.084Z,19.25
2023-09-15T22:34:50.797Z,19.24
2023-09-15T22:36:53.493Z,19.22
2023-09-15T22:38:57.645Z,19.21
2023-09-15T22:41:16.415Z,19.22
2023-09-15T22:43:21.630Z,19.19
2023-09-15T22:45:27.644Z,19.15
2023-09-15T22:47:31.002Z,19.14
2023-09-15T22:49:33.732Z,19.13
2023-09-15T22:51:36.436Z,19.10
2023-09-15T22:53:39.154Z,19.09
2023-09-15T22:55:44.312Z,19.08
2023-09-15T22:57:46.975Z,19.07
2023-09-15T22:59:50.150Z,19.05
2023-09-15T23:01:52.849Z,19.04
2023-09-15T23:03:55.585Z,19.00
2023-09-15T23:05:58.429Z,18.98
2023-09-15T23:08:00.137Z,18.98
2023-09-15T23:10:02.880Z,18.95
2023-09-15T23:12:10.850Z,18.94
2023-09-15T23:14:13.588Z,18.90
2023-09-15T23:16:16.911Z,18.87
2023-09-15T23:18:19.843Z,18.86
2023-09-15T23:20:22.629Z,18.82
2023-09-15T23:22:25.080Z,18.82
2023-09-15T23:24:27.997Z,18.80
2023-09-15T23:26:30.707Z,18.74
2023-09-15T23:28:34.711Z,18.71
2023-09-15T23:30:37.416Z,18.70
2023-09-15T23:32:40.349Z,18.68
2023-09-15T23:34:43.463Z,18.67
2023-09-15T23:36:47.850Z,18.64
2023-09-15T23:38:50.758Z,18.62
2023-09-15T23:40:53.552Z,18.59
2023-09-15T23:42:56.350Z,18.57
2023-09-15T23:45:00.385Z,18.55
2023-09-15T23:47:03.108Z,18.56
2023-09-15T23:49:05.442Z,18.56
2023-09-15T23:51:11.193Z,18.56
2023-09-15T23:53:13.896Z,18.55
2023-09-15T23:55:16.688Z,18.51
2023-09-15T23:57:20.900Z,18.50
2023-09-15T23:59:24.353Z,18.49
